createdAt,value
2022-10-03T00:01:37.129Z,13.00
2022-10-03T00:04:20.477Z,13.00
2022-10-03T00:07:00.443Z,12.90
2022-10-03T00:09:43.191Z,13.00
2022-10-03T00:12:21.479Z,12.90
2022-10-03T00:14:59.605Z,12.90
2022-10-03T00:17:37.857Z,12.90
2022-10-03T00:20:17.119Z,12.90
2022-10-03T00:22:52.779Z,12.90
2022-10-03T00:25:31.910Z,12.90
2022-10-03T00:28:13.606Z,12.90
2022-10-03T00:30:59.227Z,12.90
2022-10-03T00:33:38.203Z,12.90
2022-10-03T00:36:17.914Z,12.90
2022-10-03T00:39:04.598Z,12.80
2022-10-03T00:42:06.659Z,12.80
2022-10-03T00:44:51.742Z,12.80
2022-10-03T00:47:57.117Z,12.80
2022-10-03T00:50:44.138Z,12.80
2022-10-03T00:53:34.371Z,12.70
2022-10-03T00:56:23.745Z,12.70
2022-10-03T00:59:04.403Z,12.60
2022-10-03T01:01:38.284Z,12.60
2022-10-03T01:04:31.414Z,12.60
2022-10-03T01:07:11.310Z,12.60
2022-10-03T01:09:55.977Z,12.50
2022-10-03T01:12:52.417Z,12.50
2022-10-03T01:15:30.811Z,12.40
2022-10-03T01:18:18.178Z,12.40
2022-10-03T01:20:55.086Z,12.40
2022-10-03T01:24:10.616Z,12.40
2022-10-03T01:26:57.009Z,12.40
2022-10-03T01:29:57.878Z,12.40
2022-10-03T01:32:31.499Z,12.30
2022-10-03T01:35:10.201Z,12.30
2022-10-03T01:37:44.524Z,12.20
2022-10-03T01:40:22.615Z,12.20
2022-10-03T01:43:04.548Z,12.20
2022-10-03T01:45:45.950Z,12.10
2022-10-03T01:48:23.024Z,12.10
2022-10-03T01:51:01.491Z,12.20
2022-10-03T01:53:39.180Z,12.20
2022-10-03T01:56:13.144Z,12.20
2022-10-03T01:58:52.902Z,12.10
2022-10-03T02:01:30.392Z,12.10
2022-10-03T02:04:06.731Z,12.10
2022-10-03T02:06:45.640Z,12.10
2022-10-03T02:09:28.118Z,12.10
2022-10-03T02:12:08.259Z,12.10
2022-10-03T02:14:46.806Z,12.00
2022-10-03T02:17:30.563Z,12.00
2022-10-03T02:20:08.833Z,12.00
2022-10-03T02:22:43.479Z,11.90
2022-10-03T02:25:24.552Z,11.90
2022-10-03T02:28:31.400Z,11.90
2022-10-03T02:31:32.225Z,11.90
2022-10-03T02:34:43.118Z,11.90
2022-10-03T02:37:37.484Z,11.90
2022-10-03T02:40:33.731Z,11.80
2022-10-03T02:43:41.932Z,11.80
2022-10-03T02:46:47.361Z,11.70
2022-10-03T02:49:48.738Z,11.70
2022-10-03T02:52:58.151Z,11.70
2022-10-03T02:55:51.821Z,11.60
2022-10-03T02:58:56.947Z,11.60
2022-10-03T03:01:52.465Z,11.60
2022-10-03T03:04:56.553Z,11.50
2022-10-03T03:07:38.183Z,11.50
2022-10-03T03:10:47.988Z,11.50
2022-10-03T03:13:35.609Z,11.50
2022-10-03T03:16:45.147Z,11.50
2022-10-03T03:19:40.683Z,11.50
2022-10-03T03:22:25.273Z,11.60
2022-10-03T03:25:14.686Z,11.60
2022-10-03T03:27:57.566Z,11.60
2022-10-03T03:30:33.002Z,11.60
2022-10-03T03:33:11.073Z,11.60
2022-10-03T03:35:51.703Z,11.50
2022-10-03T03:38:30.103Z,11.50
2022-10-03T03:41:13.367Z,11.50
2022-10-03T03:44:00.663Z,11.50
2022-10-03T03:46:44.900Z,11.60
2022-10-03T03:49:32.105Z,11.60
2022-10-03T03:52:16.107Z,11.60
2022-10-03T03:55:17.974Z,11.60
2022-10-03T03:58:07.012Z,11.60
2022-10-03T04:00:51.432Z,11.70
2022-10-03T04:03:38.433Z,11.70
2022-10-03T04:06:22.599Z,11.70
2022-10-03T04:09:20.578Z,11.70
2022-10-03T04:11:59.900Z,11.70
2022-10-03T04:14:55.177Z,11.70
2022-10-03T04:18:00.076Z,11.70
2022-10-03T04:20:46.985Z,11.70
2022-10-03T04:23:30.288Z,11.60
2022-10-03T04:26:13.163Z,11.60
2022-10-03T04:29:07.001Z,11.60
2022-10-03T04:31:45.179Z,11.60
2022-10-03T04:34:31.215Z,11.60
2022-10-03T04:37:20.855Z,11.50
2022-10-03T04:39:58.484Z,11.60
2022-10-03T04:42:40.950Z,11.60
2022-10-03T04:45:28.682Z,11.60
2022-10-03T04:48:06.108Z,11.60
2022-10-03T04:50:41.659Z,11.60
2022-10-03T04:53:24.627Z,11.60
2022-10-03T04:55:59.518Z,11.60
2022-10-03T04:58:34.651Z,11.60
2022-10-03T05:01:16.094Z,11.60
2022-10-03T05:04:06.198Z,11.60
2022-10-03T05:06:48.553Z,11.70
2022-10-03T05:09:32.679Z,11.70
2022-10-03T05:12:11.446Z,11.70
2022-10-03T05:15:03.782Z,11.70
2022-10-03T05:17:42.826Z,11.70
2022-10-03T05:20:45.614Z,11.80
2022-10-03T05:23:25.613Z,11.80
2022-10-03T05:26:23.083Z,11.80
2022-10-03T05:29:01.231Z,11.80
2022-10-03T05:31:28.349Z,11.80
2022-10-03T05:34:05.786Z,11.80
2022-10-03T05:36:49.987Z,11.90
2022-10-03T05:39:43.788Z,11.90
2022-10-03T05:42:29.357Z,11.90
2022-10-03T05:45:05.443Z,11.90
2022-10-03T05:47:46.531Z,11.90
2022-10-03T05:50:57.936Z,11.90
2022-10-03T05:53:57.405Z,11.90
2022-10-03T05:56:44.262Z,11.90
2022-10-03T05:59:34.032Z,12.00
2022-10-03T06:02:39.572Z,12.00
2022-10-03T06:05:16.990Z,12.00
2022-10-03T06:08:04.827Z,12.00
2022-10-03T06:10:50.772Z,12.10
2022-10-03T06:13:33.944Z,12.10
2022-10-03T06:16:13.936Z,12.10
2022-10-03T06:19:07.711Z,12.10
2022-10-03T06:22:05.748Z,12.20
2022-10-03T06:25:08.831Z,12.20
2022-10-03T06:28:19.353Z,12.20
2022-10-03T06:31:11.555Z,12.30
2022-10-03T06:34:20.397Z,12.30
2022-10-03T06:37:17.728Z,12.30
2022-10-03T06:40:33.834Z,12.30
2022-10-03T06:43:35.109Z,12.30
2022-10-03T06:46:35.531Z,12.30
2022-10-03T06:49:43.885Z,12.40
2022-10-03T06:52:44.359Z,12.40
2022-10-03T06:55:42.029Z,12.40
2022-10-03T06:58:53.237Z,12.50
2022-10-03T07:02:06.889Z,12.50
2022-10-03T07:05:06.427Z,12.60
2022-10-03T07:08:09.789Z,12.60
2022-10-03T07:10:53.647Z,12.70
2022-10-03T07:13:52.540Z,12.70
2022-10-03T07:16:52.327Z,12.80
2022-10-03T07:19:58.958Z,12.80
2022-10-03T07:22:56.856Z,12.90
2022-10-03T07:25:55.923Z,12.90
2022-10-03T07:29:17.486Z,12.90
2022-10-03T07:31:58.504Z,12.80
2022-10-03T07:35:02.722Z,12.80
2022-10-03T07:38:08.617Z,12.90
2022-10-03T07:41:14.702Z,12.80
2022-10-03T07:43:57.020Z,12.90
2022-10-03T07:47:19.905Z,13.00
2022-10-03T07:50:04.055Z,12.90
2022-10-03T07:52:58.414Z,13.10
2022-10-03T07:55:41.997Z,13.40
2022-10-03T07:58:42.400Z,13.60
2022-10-03T08:01:26.096Z,13.80
2022-10-03T08:04:30.454Z,13.90
2022-10-03T08:07:12.389Z,14.00
2022-10-03T08:10:04.377Z,14.00
2022-10-03T08:12:57.939Z,14.00
2022-10-03T08:15:35.769Z,13.90
2022-10-03T08:18:39.271Z,13.90
2022-10-03T08:21:11.334Z,13.90
2022-10-03T08:24:06.553Z,14.00
2022-10-03T08:26:49.794Z,14.00
2022-10-03T08:30:14.203Z,14.00
2022-10-03T08:33:15.427Z,14.00
2022-10-03T08:36:25.163Z,14.00
2022-10-03T08:39:10.946Z,14.10
2022-10-03T08:42:09.663Z,14.10
2022-10-03T08:45:07.756Z,14.30
2022-10-03T08:48:28.568Z,14.50
2022-10-03T08:51:47.821Z,14.60
2022-10-03T08:54:37.714Z,14.80
2022-10-03T08:57:21.719Z,14.90
2022-10-03T09:00:19.706Z,15.20
2022-10-03T09:03:42.869Z,15.30
2022-10-03T09:07:15.311Z,15.50
2022-10-03T09:10:10.055Z,15.90
2022-10-03T09:13:20.850Z,16.20
2022-10-03T09:16:30.521Z,16.40
2022-10-03T09:19:27.276Z,16.60
2022-10-03T09:22:19.722Z,16.60
2022-10-03T09:25:34.948Z,16.60
2022-10-03T09:28:32.846Z,16.50
2022-10-03T09:31:13.552Z,16.50
2022-10-03T09:34:21.896Z,16.40
2022-10-03T09:37:34.537Z,16.50
2022-10-03T09:40:35.161Z,16.70
2022-10-03T09:43:38.651Z,16.80
2022-10-03T09:46:33.057Z,16.90
2022-10-03T09:49:36.437Z,16.90
2022-10-03T09:52:27.910Z,17.00
2022-10-03T09:55:23.991Z,17.10
2022-10-03T09:58:16.827Z,17.10
2022-10-03T10:01:13.538Z,17.10
2022-10-03T10:04:37.557Z,17.30
2022-10-03T10:07:46.574Z,17.30
2022-10-03T10:10:51.126Z,17.40
2022-10-03T10:14:11.244Z,17.50
2022-10-03T10:17:31.970Z,17.60
2022-10-03T10:20:14.443Z,17.80
2022-10-03T10:23:16.104Z,17.90
2022-10-03T10:26:31.582Z,18.00
2022-10-03T10:29:27.584Z,18.10
2022-10-03T10:32:44.095Z,18.20
2022-10-03T10:36:00.038Z,18.40
2022-10-03T10:39:06.522Z,18.50
2022-10-03T10:42:08.756Z,18.60
2022-10-03T10:45:30.627Z,18.80
2022-10-03T10:48:37.687Z,18.90
2022-10-03T10:51:44.893Z,19.20
2022-10-03T10:54:59.598Z,19.40
2022-10-03T10:57:53.726Z,19.70
2022-10-03T11:00:30.877Z,19.80
2022-10-03T11:04:03.693Z,20.00
2022-10-03T11:07:07.318Z,19.90
2022-10-03T11:10:18.545Z,19.90
2022-10-03T11:13:25.020Z,20.10
2022-10-03T11:16:13.065Z,20.20
2022-10-03T11:19:17.528Z,20.30
2022-10-03T11:22:35.570Z,20.20
2022-10-03T11:28:38.962Z,20.00
2022-10-03T11:31:38.241Z,19.60
2022-10-03T11:34:56.063Z,19.60
2022-10-03T11:37:43.107Z,20.00
2022-10-03T11:40:33.363Z,20.40
2022-10-03T11:43:41.296Z,20.70
2022-10-03T11:46:33.735Z,21.30
2022-10-03T11:49:10.435Z,21.30
2022-10-03T11:51:44.012Z,21.10
2022-10-03T11:54:31.686Z,20.80
2022-10-03T11:57:06.392Z,21.20
2022-10-03T11:59:41.537Z,22.10
2022-10-03T12:02:16.101Z,22.30
2022-10-03T12:04:52.881Z,22.60
2022-10-03T12:07:58.448Z,23.30
2022-10-03T12:10:39.110Z,24.70
2022-10-03T12:13:15.009Z,25.00
2022-10-03T12:15:47.809Z,25.30
2022-10-03T12:18:24.210Z,25.00
2022-10-03T12:21:07.794Z,24.80
2022-10-03T12:24:08.048Z,24.80
2022-10-03T12:26:47.376Z,24.80
2022-10-03T12:29:19.282Z,24.50
2022-10-03T12:32:00.993Z,24.00
2022-10-03T12:34:38.471Z,23.70
2022-10-03T12:37:36.626Z,23.50
2022-10-03T12:40:10.852Z,25.40
2022-10-03T12:42:49.195Z,28.10
2022-10-03T12:45:26.800Z,29.50
2022-10-03T12:48:10.762Z,31.50
2022-10-03T12:50:48.639Z,33.80
2022-10-03T12:53:29.699Z,34.80
2022-10-03T12:56:08.198Z,33.70
2022-10-03T12:58:47.506Z,32.10
2022-10-03T13:01:28.422Z,30.70
2022-10-03T13:04:00.355Z,31.70
2022-10-03T13:07:03.669Z,33.50
2022-10-03T13:10:22.927Z,34.80
2022-10-03T13:12:55.619Z,33.60
2022-10-03T13:15:47.316Z,32.00
2022-10-03T13:18:36.724Z,30.50
2022-10-03T13:21:40.772Z,29.00
2022-10-03T13:24:06.937Z,27.80
2022-10-03T13:26:52.071Z,26.80
2022-10-03T13:29:27.512Z,26.10
2022-10-03T13:32:17.935Z,25.70
2022-10-03T13:35:25.206Z,26.80
2022-10-03T13:38:46.975Z,27.70
2022-10-03T13:41:28.370Z,29.20
2022-10-03T13:44:04.272Z,31.10
2022-10-03T13:46:44.897Z,32.50
2022-10-03T13:49:18.755Z,33.60
2022-10-03T13:51:58.149Z,33.70
2022-10-03T13:54:48.948Z,33.10
2022-10-03T13:57:24.355Z,32.30
2022-10-03T14:00:04.340Z,31.20
2022-10-03T14:03:02.430Z,30.20
2022-10-03T14:05:51.636Z,29.10
2022-10-03T14:08:34.028Z,28.10
2022-10-03T14:11:29.669Z,27.10
2022-10-03T14:14:16.525Z,26.30
2022-10-03T14:16:52.386Z,25.50
2022-10-03T14:19:30.932Z,24.90
2022-10-03T14:22:21.291Z,24.50
2022-10-03T14:25:04.358Z,23.90
2022-10-03T14:27:43.964Z,23.50
2022-10-03T14:30:17.227Z,23.20
2022-10-03T14:33:02.051Z,22.90
2022-10-03T14:35:38.946Z,22.50
2022-10-03T14:38:50.469Z,22.20
2022-10-03T14:41:23.582Z,21.90
2022-10-03T14:43:55.967Z,21.60
2022-10-03T14:46:27.856Z,21.50
2022-10-03T14:48:59.722Z,21.30
2022-10-03T14:51:32.963Z,21.20
2022-10-03T14:54:05.173Z,21.10
2022-10-03T14:56:35.770Z,21.00
2022-10-03T14:59:14.223Z,21.00
2022-10-03T15:01:51.216Z,21.10
2022-10-03T15:04:28.538Z,21.10
2022-10-03T15:06:57.772Z,21.00
2022-10-03T15:09:33.537Z,21.00
2022-10-03T15:12:07.994Z,20.90
2022-10-03T15:14:43.809Z,20.80
2022-10-03T15:17:20.683Z,20.70
2022-10-03T15:19:57.343Z,20.60
2022-10-03T15:22:33.140Z,20.60
2022-10-03T15:25:07.322Z,20.50
2022-10-03T15:27:36.312Z,20.50
2022-10-03T15:30:06.673Z,20.40
2022-10-03T15:32:42.072Z,20.40
2022-10-03T15:35:18.732Z,20.30
2022-10-03T15:37:47.996Z,20.30
2022-10-03T15:40:26.296Z,20.20
2022-10-03T15:43:04.100Z,20.10
2022-10-03T15:45:36.116Z,20.00
2022-10-03T15:48:08.158Z,19.90
2022-10-03T15:50:41.017Z,19.90
2022-10-03T15:53:35.042Z,19.70
2022-10-03T15:56:11.139Z,19.60
2022-10-03T15:58:45.001Z,19.50
2022-10-03T16:01:17.936Z,19.40
2022-10-03T16:03:50.873Z,19.40
2022-10-03T16:06:22.054Z,19.40
2022-10-03T16:09:00.583Z,19.30
2022-10-03T16:11:33.337Z,19.30
2022-10-03T16:14:13.567Z,19.20
2022-10-03T16:16:48.261Z,19.10
2022-10-03T16:19:28.801Z,19.10
2022-10-03T16:22:08.835Z,19.00
2022-10-03T16:24:42.674Z,18.90
2022-10-03T16:27:16.864Z,18.90
2022-10-03T16:29:52.189Z,18.80
2022-10-03T16:32:23.639Z,18.70
2022-10-03T16:34:53.976Z,18.70
2022-10-03T16:37:24.646Z,18.60
2022-10-03T16:40:00.616Z,18.50
2022-10-03T16:42:39.653Z,18.40
2022-10-03T16:45:22.147Z,18.40
2022-10-03T16:48:12.154Z,18.30
2022-10-03T16:50:47.461Z,18.30
2022-10-03T16:53:16.020Z,18.30
2022-10-03T16:55:48.566Z,18.20
2022-10-03T16:58:21.494Z,18.20
2022-10-03T17:01:22.173Z,18.10
2022-10-03T17:03:48.927Z,18.00
2022-10-03T17:06:23.031Z,18.00
2022-10-03T17:08:54.033Z,17.90
2022-10-03T17:11:26.225Z,17.80
2022-10-03T17:13:57.051Z,17.70
2022-10-03T17:16:33.477Z,17.70
2022-10-03T17:19:21.381Z,17.60
2022-10-03T17:21:54.853Z,17.50
2022-10-03T17:24:33.234Z,17.40
2022-10-03T17:27:05.645Z,17.40
2022-10-03T17:29:36.573Z,17.30
2022-10-03T17:32:14.967Z,17.30
2022-10-03T17:34:47.797Z,17.20
2022-10-03T17:38:19.877Z,17.20
2022-10-03T17:41:10.750Z,17.10
2022-10-03T17:43:45.584Z,17.10
2022-10-03T17:46:19.633Z,17.00
2022-10-03T17:48:56.478Z,16.90
2022-10-03T17:51:35.675Z,16.90
2022-10-03T17:54:11.613Z,16.90
2022-10-03T17:56:44.487Z,16.80
2022-10-03T17:59:16.035Z,16.70
2022-10-03T18:01:46.367Z,16.70
2022-10-03T18:04:19.418Z,16.60
2022-10-03T18:06:50.278Z,16.60
2022-10-03T18:09:32.533Z,16.50
2022-10-03T18:12:22.216Z,16.50
2022-10-03T18:15:53.475Z,16.50
2022-10-03T18:18:55.367Z,16.40
2022-10-03T18:21:39.420Z,16.40
2022-10-03T18:24:25.686Z,16.30
2022-10-03T18:27:06.741Z,16.30
2022-10-03T18:29:40.879Z,16.20
2022-10-03T18:32:15.211Z,16.20
2022-10-03T18:34:48.378Z,16.10
2022-10-03T18:37:55.286Z,16.10
2022-10-03T18:40:27.918Z,16.00
2022-10-03T18:42:58.198Z,15.90
2022-10-03T18:45:31.521Z,15.90
2022-10-03T18:48:08.720Z,15.80
2022-10-03T18:50:55.121Z,15.80
2022-10-03T18:53:28.894Z,15.80
2022-10-03T18:56:02.146Z,15.80
2022-10-03T18:58:36.803Z,15.80
2022-10-03T19:01:08.917Z,15.70
2022-10-03T19:03:43.285Z,15.70
2022-10-03T19:06:22.776Z,15.70
2022-10-03T19:08:54.328Z,15.70
2022-10-03T19:11:27.167Z,15.60
2022-10-03T19:14:02.255Z,15.60
2022-10-03T19:17:14.100Z,15.60
2022-10-03T19:20:01.679Z,15.60
2022-10-03T19:22:38.304Z,15.60
2022-10-03T19:25:14.603Z,15.50
2022-10-03T19:27:52.427Z,15.50
2022-10-03T19:30:24.238Z,15.50
2022-10-03T19:32:58.979Z,15.40
2022-10-03T19:35:27.987Z,15.40
2022-10-03T19:38:01.541Z,15.40
2022-10-03T19:40:43.301Z,15.40
2022-10-03T19:43:42.880Z,15.30
2022-10-03T19:46:26.890Z,15.30
2022-10-03T19:49:24.966Z,15.30
2022-10-03T19:51:53.437Z,15.30
2022-10-03T19:54:34.882Z,15.30
2022-10-03T19:57:07.879Z,15.30
2022-10-03T19:59:45.587Z,15.30
2022-10-03T20:02:14.993Z,15.20
2022-10-03T20:04:43.286Z,15.20
2022-10-03T20:07:20.143Z,15.20
2022-10-03T20:09:58.119Z,15.20
2022-10-03T20:12:28.774Z,15.20
2022-10-03T20:15:01.983Z,15.20
2022-10-03T20:17:32.504Z,15.20
2022-10-03T20:20:05.968Z,15.10
2022-10-03T20:22:37.357Z,15.10
2022-10-03T20:25:09.527Z,15.10
2022-10-03T20:27:58.446Z,15.00
2022-10-03T20:30:32.838Z,15.00
2022-10-03T20:33:02.730Z,14.90
2022-10-03T20:35:37.890Z,14.90
2022-10-03T20:38:12.970Z,14.90
2022-10-03T20:40:44.597Z,14.80
2022-10-03T20:43:41.568Z,14.80
2022-10-03T20:46:18.662Z,14.80
2022-10-03T20:49:03.272Z,14.70
2022-10-03T20:51:42.209Z,14.70
2022-10-03T20:54:19.166Z,14.70
2022-10-03T20:56:56.035Z,14.70
2022-10-03T20:59:33.708Z,14.60
2022-10-03T21:02:10.466Z,14.60
2022-10-03T21:04:54.177Z,14.60
2022-10-03T21:07:37.347Z,14.50
2022-10-03T21:10:17.351Z,14.50
2022-10-03T21:12:48.777Z,14.50
2022-10-03T21:15:27.861Z,14.40
2022-10-03T21:17:57.995Z,14.40
2022-10-03T21:20:32.518Z,14.40
2022-10-03T21:23:03.943Z,14.40
2022-10-03T21:25:34.323Z,14.40
2022-10-03T21:28:04.920Z,14.30
2022-10-03T21:30:49.292Z,14.30
2022-10-03T21:33:21.065Z,14.30
2022-10-03T21:35:51.823Z,14.30
2022-10-03T21:38:26.683Z,14.30
2022-10-03T21:41:24.273Z,14.20
2022-10-03T21:43:55.902Z,14.20
2022-10-03T21:46:35.424Z,14.20
2022-10-03T21:49:18.036Z,14.10
2022-10-03T21:52:12.311Z,14.00
2022-10-03T21:54:51.310Z,13.90
2022-10-03T21:57:27.649Z,13.90
2022-10-03T22:00:09.451Z,13.90
2022-10-03T22:02:49.364Z,14.00
2022-10-03T22:05:28.350Z,14.00
2022-10-03T22:07:57.696Z,14.00
2022-10-03T22:10:29.791Z,14.00
2022-10-03T22:13:01.003Z,14.00
2022-10-03T22:15:37.807Z,14.00
2022-10-03T22:18:11.751Z,14.00
2022-10-03T22:20:51.443Z,14.00
2022-10-03T22:23:31.317Z,14.10
2022-10-03T22:26:08.698Z,14.00
2022-10-03T22:28:53.864Z,14.00
2022-10-03T22:31:30.857Z,14.00
2022-10-03T22:34:17.052Z,14.00
2022-10-03T22:36:45.707Z,14.00
2022-10-03T22:39:18.643Z,14.00
2022-10-03T22:41:51.350Z,13.90
2022-10-03T22:44:22.537Z,13.90
2022-10-03T22:46:55.495Z,13.90
2022-10-03T22:49:30.054Z,13.90
2022-10-03T22:52:04.707Z,13.90
2022-10-03T22:54:36.477Z,13.80
2022-10-03T22:57:08.170Z,13.70
2022-10-03T22:59:40.517Z,13.70
2022-10-03T23:02:11.312Z,13.70
2022-10-03T23:04:44.397Z,13.70
2022-10-03T23:07:26.581Z,13.60
2022-10-03T23:10:07.218Z,13.50
2022-10-03T23:12:40.378Z,13.50
2022-10-03T23:15:13.162Z,13.50
2022-10-03T23:18:03.175Z,13.50
2022-10-03T23:20:52.282Z,13.40
2022-10-03T23:23:25.957Z,13.40
2022-10-03T23:26:11.517Z,13.40
2022-10-03T23:28:52.969Z,13.50
2022-10-03T23:31:56.425Z,13.50
2022-10-03T23:34:49.759Z,13.50
2022-10-03T23:37:42.975Z,13.50
2022-10-03T23:40:36.762Z,13.50
2022-10-03T23:43:22.981Z,13.50
2022-10-03T23:45:52.805Z,13.50
2022-10-03T23:48:23.890Z,13.50
2022-10-03T23:50:55.827Z,13.50
2022-10-03T23:53:30.956Z,13.50
2022-10-03T23:56:00.128Z,13.50
2022-10-03T23:58:32.833Z,13.40
